sensor_id;sensor_type;location;lat;lon;timestamp;temperature;humidity
45868;DHT22;31582;45.490;7.860;2023-06-10T00:00:43;20.00;99.90
45868;DHT22;31582;45.490;7.860;2023-06-10T00:03:11;20.10;99.90
45868;DHT22;31582;45.490;7.860;2023-06-10T00:05:39;20.00;99.90
45868;DHT22;31582;45.490;7.860;2023-06-10T00:08:06;19.80;99.90
45868;DHT22;31582;45.490;7.860;2023-06-10T00:10:38;19.70;99.90
45868;DHT22;31582;45.490;7.860;2023-06-10T00:13:06;19.70;99.90
45868;DHT22;31582;45.490;7.860;2023-06-10T00:15:35;19.60;99.90
45868;DHT22;31582;45.490;7.860;2023-06-10T00:18:03;19.70;99.90
45868;DHT22;31582;45.490;7.860;2023-06-10T00:20:30;19.70;99.90
45868;DHT22;31582;45.490;7.860;2023-06-10T00:22:58;19.70;99.90
45868;DHT22;31582;45.490;7.860;2023-06-10T00:25:28;19.70;99.90
45868;DHT22;31582;45.490;7.860;2023-06-10T00:27:55;19.80;99.90
45868;DHT22;31582;45.490;7.860;2023-06-10T00:30:22;19.90;99.90
45868;DHT22;31582;45.490;7.860;2023-06-10T00:32:49;19.90;99.90
45868;DHT22;31582;45.490;7.860;2023-06-10T00:35:16;20.00;99.90
45868;DHT22;31582;45.490;7.860;2023-06-10T00:37:43;19.90;99.90
45868;DHT22;31582;45.490;7.860;2023-06-10T00:40:10;19.90;99.90
45868;DHT22;31582;45.490;7.860;2023-06-10T00:42:38;19.90;99.90
45868;DHT22;31582;45.490;7.860;2023-06-10T00:45:05;19.90;99.90
45868;DHT22;31582;45.490;7.860;2023-06-10T00:47:34;19.80;99.90
45868;DHT22;31582;45.490;7.860;2023-06-10T00:50:02;19.80;99.90
45868;DHT22;31582;45.490;7.860;2023-06-10T00:52:30;19.80;99.90
45868;DHT22;31582;45.490;7.860;2023-06-10T00:54:57;19.80;99.90
45868;DHT22;31582;45.490;7.860;2023-06-10T00:57:27;19.80;99.90
45868;DHT22;31582;45.490;7.860;2023-06-10T00:59:57;19.80;99.90
45868;DHT22;31582;45.490;7.860;2023-06-10T01:20:21;19.70;99.90
45868;DHT22;31582;45.490;7.860;2023-06-10T01:22:48;19.80;99.90
45868;DHT22;31582;45.490;7.860;2023-06-10T01:25:15;19.90;99.90
45868;DHT22;31582;45.490;7.860;2023-06-10T01:27:42;19.80;99.90
45868;DHT22;31582;45.490;7.860;2023-06-10T01:30:23;19.80;99.90
45868;DHT22;31582;45.490;7.860;2023-06-10T01:32:52;19.70;99.90
45868;DHT22;31582;45.490;7.860;2023-06-10T01:35:22;19.60;99.90
45868;DHT22;31582;45.490;7.860;2023-06-10T01:37:53;19.60;99.90
45868;DHT22;31582;45.490;7.860;2023-06-10T01:40:23;19.60;99.90
45868;DHT22;31582;45.490;7.860;2023-06-10T01:42:50;19.50;99.90
45868;DHT22;31582;45.490;7.860;2023-06-10T01:45:18;19.40;99.90
45868;DHT22;31582;45.490;7.860;2023-06-10T01:47:45;19.70;99.90
45868;DHT22;31582;45.490;7.860;2023-06-10T01:50:12;19.60;99.90
45868;DHT22;31582;45.490;7.860;2023-06-10T01:52:39;19.50;99.90
45868;DHT22;31582;45.490;7.860;2023-06-10T01:55:06;19.50;99.90
45868;DHT22;31582;45.490;7.860;2023-06-10T01:57:34;19.40;99.90
45868;DHT22;31582;45.490;7.860;2023-06-10T02:00:01;19.30;99.90
45868;DHT22;31582;45.490;7.860;2023-06-10T02:02:29;19.40;99.90
45868;DHT22;31582;45.490;7.860;2023-06-10T02:04:56;19.30;99.90
45868;DHT22;31582;45.490;7.860;2023-06-10T02:07:23;19.40;99.90
45868;DHT22;31582;45.490;7.860;2023-06-10T02:09:50;19.50;99.90
45868;DHT22;31582;45.490;7.860;2023-06-10T02:12:17;19.50;99.90
45868;DHT22;31582;45.490;7.860;2023-06-10T02:14:44;19.50;99.90
45868;DHT22;31582;45.490;7.860;2023-06-10T02:17:11;19.50;99.90
45868;DHT22;31582;45.490;7.860;2023-06-10T02:19:39;19.30;99.90
45868;DHT22;31582;45.490;7.860;2023-06-10T02:22:09;19.30;99.90
45868;DHT22;31582;45.490;7.860;2023-06-10T02:24:36;19.20;99.90
45868;DHT22;31582;45.490;7.860;2023-06-10T02:27:06;19.20;99.90
45868;DHT22;31582;45.490;7.860;2023-06-10T02:29:34;19.10;99.90
45868;DHT22;31582;45.490;7.860;2023-06-10T02:32:02;19.20;99.90
45868;DHT22;31582;45.490;7.860;2023-06-10T02:34:29;19.10;99.90
45868;DHT22;31582;45.490;7.860;2023-06-10T02:36:56;19.10;99.90
45868;DHT22;31582;45.490;7.860;2023-06-10T02:39:23;19.10;99.90
45868;DHT22;31582;45.490;7.860;2023-06-10T02:41:50;19.20;99.90
45868;DHT22;31582;45.490;7.860;2023-06-10T02:44:18;19.10;99.90
45868;DHT22;31582;45.490;7.860;2023-06-10T02:46:46;19.10;99.90
45868;DHT22;31582;45.490;7.860;2023-06-10T02:49:13;19.00;99.90
45868;DHT22;31582;45.490;7.860;2023-06-10T02:51:39;19.00;99.90
45868;DHT22;31582;45.490;7.860;2023-06-10T02:54:06;19.00;99.90
45868;DHT22;31582;45.490;7.860;2023-06-10T02:56:33;19.00;99.90
45868;DHT22;31582;45.490;7.860;2023-06-10T02:59:00;19.10;99.90
45868;DHT22;31582;45.490;7.860;2023-06-10T03:01:27;19.10;99.90
45868;DHT22;31582;45.490;7.860;2023-06-10T03:03:54;19.00;99.90
45868;DHT22;31582;45.490;7.860;2023-06-10T03:06:23;19.00;99.90
45868;DHT22;31582;45.490;7.860;2023-06-10T03:08:51;18.90;99.90
45868;DHT22;31582;45.490;7.860;2023-06-10T03:11:18;18.90;99.90
45868;DHT22;31582;45.490;7.860;2023-06-10T03:13:46;18.90;99.90
45868;DHT22;31582;45.490;7.860;2023-06-10T03:16:13;18.80;99.90
45868;DHT22;31582;45.490;7.860;2023-06-10T03:18:40;18.80;99.90
45868;DHT22;31582;45.490;7.860;2023-06-10T03:21:07;18.80;99.90
45868;DHT22;31582;45.490;7.860;2023-06-10T03:23:35;18.80;99.90
45868;DHT22;31582;45.490;7.860;2023-06-10T03:26:02;18.70;99.90
45868;DHT22;31582;45.490;7.860;2023-06-10T03:28:31;18.70;99.90
45868;DHT22;31582;45.490;7.860;2023-06-10T03:30:58;18.60;99.90
45868;DHT22;31582;45.490;7.860;2023-06-10T03:33:25;18.50;99.90
45868;DHT22;31582;45.490;7.860;2023-06-10T03:35:52;18.40;99.90
45868;DHT22;31582;45.490;7.860;2023-06-10T03:38:19;18.40;99.90
45868;DHT22;31582;45.490;7.860;2023-06-10T03:40:47;18.30;99.90
45868;DHT22;31582;45.490;7.860;2023-06-10T03:43:14;18.40;99.90
45868;DHT22;31582;45.490;7.860;2023-06-10T03:45:41;18.30;99.90
45868;DHT22;31582;45.490;7.860;2023-06-10T03:48:08;18.40;99.90
45868;DHT22;31582;45.490;7.860;2023-06-10T03:50:35;18.50;99.90
45868;DHT22;31582;45.490;7.860;2023-06-10T03:53:03;18.50;99.90
45868;DHT22;31582;45.490;7.860;2023-06-10T03:55:30;18.50;99.90
45868;DHT22;31582;45.490;7.860;2023-06-10T03:57:58;18.40;99.90
45868;DHT22;31582;45.490;7.860;2023-06-10T04:00:25;18.30;99.90
45868;DHT22;31582;45.490;7.860;2023-06-10T04:02:52;18.30;99.90
45868;DHT22;31582;45.490;7.860;2023-06-10T04:05:20;18.20;99.90
45868;DHT22;31582;45.490;7.860;2023-06-10T04:07:50;18.30;99.90
45868;DHT22;31582;45.490;7.860;2023-06-10T04:10:17;18.40;99.90
45868;DHT22;31582;45.490;7.860;2023-06-10T04:12:44;18.40;99.90
45868;DHT22;31582;45.490;7.860;2023-06-10T04:15:11;18.40;99.90
45868;DHT22;31582;45.490;7.860;2023-06-10T04:17:39;18.30;99.90
45868;DHT22;31582;45.490;7.860;2023-06-10T04:20:07;18.30;99.90
45868;DHT22;31582;45.490;7.860;2023-06-10T04:22:34;18.20;99.90
45868;DHT22;31582;45.490;7.860;2023-06-10T04:25:01;18.20;99.90
45868;DHT22;31582;45.490;7.860;2023-06-10T04:27:29;18.30;99.90
45868;DHT22;31582;45.490;7.860;2023-06-10T04:29:56;18.20;99.90
45868;DHT22;31582;45.490;7.860;2023-06-10T04:32:23;18.30;99.90
45868;DHT22;31582;45.490;7.860;2023-06-10T04:34:49;18.30;99.90
45868;DHT22;31582;45.490;7.860;2023-06-10T04:37:17;18.30;99.90
45868;DHT22;31582;45.490;7.860;2023-06-10T04:39:44;18.30;99.90
45868;DHT22;31582;45.490;7.860;2023-06-10T04:42:10;18.40;99.90
45868;DHT22;31582;45.490;7.860;2023-06-10T04:44:37;18.60;99.90
45868;DHT22;31582;45.490;7.860;2023-06-10T04:47:05;18.60;99.90
45868;DHT22;31582;45.490;7.860;2023-06-10T04:49:34;18.70;99.90
45868;DHT22;31582;45.490;7.860;2023-06-10T04:52:02;18.70;99.90
45868;DHT22;31582;45.490;7.860;2023-06-10T04:54:31;18.60;99.90
45868;DHT22;31582;45.490;7.860;2023-06-10T04:56:59;18.60;99.90
45868;DHT22;31582;45.490;7.860;2023-06-10T04:59:26;18.60;99.90
45868;DHT22;31582;45.490;7.860;2023-06-10T05:01:54;18.50;99.90
45868;DHT22;31582;45.490;7.860;2023-06-10T05:04:22;18.50;99.90
45868;DHT22;31582;45.490;7.860;2023-06-10T05:06:48;18.50;99.90
45868;DHT22;31582;45.490;7.860;2023-06-10T05:09:16;18.60;99.90
45868;DHT22;31582;45.490;7.860;2023-06-10T05:11:43;18.60;99.90
45868;DHT22;31582;45.490;7.860;2023-06-10T05:14:11;18.70;99.90
45868;DHT22;31582;45.490;7.860;2023-06-10T05:16:38;18.70;99.90
45868;DHT22;31582;45.490;7.860;2023-06-10T05:19:05;18.80;99.90
45868;DHT22;31582;45.490;7.860;2023-06-10T05:21:34;18.80;99.90
45868;DHT22;31582;45.490;7.860;2023-06-10T05:24:01;18.90;99.90
45868;DHT22;31582;45.490;7.860;2023-06-10T05:26:29;18.80;99.90
45868;DHT22;31582;45.490;7.860;2023-06-10T05:28:58;19.00;99.90
45868;DHT22;31582;45.490;7.860;2023-06-10T05:31:25;19.10;99.90
45868;DHT22;31582;45.490;7.860;2023-06-10T05:33:52;19.10;99.90
45868;DHT22;31582;45.490;7.860;2023-06-10T05:36:19;19.40;99.90
45868;DHT22;31582;45.490;7.860;2023-06-10T05:38:46;19.60;99.90
45868;DHT22;31582;45.490;7.860;2023-06-10T05:41:13;19.50;99.90
45868;DHT22;31582;45.490;7.860;2023-06-10T05:43:40;19.40;99.90
45868;DHT22;31582;45.490;7.860;2023-06-10T05:46:07;19.30;99.90
45868;DHT22;31582;45.490;7.860;2023-06-10T05:48:34;19.30;99.90
45868;DHT22;31582;45.490;7.860;2023-06-10T05:51:01;19.50;99.90
45868;DHT22;31582;45.490;7.860;2023-06-10T05:53:28;19.50;99.90
45868;DHT22;31582;45.490;7.860;2023-06-10T05:55:56;19.50;99.90
45868;DHT22;31582;45.490;7.860;2023-06-10T05:58:24;19.70;99.90
45868;DHT22;31582;45.490;7.860;2023-06-10T06:00:51;19.80;99.90
45868;DHT22;31582;45.490;7.860;2023-06-10T06:03:18;19.80;99.90
45868;DHT22;31582;45.490;7.860;2023-06-10T06:05:45;19.90;99.90
45868;DHT22;31582;45.490;7.860;2023-06-10T06:08:12;19.80;99.90
45868;DHT22;31582;45.490;7.860;2023-06-10T06:10:46;20.00;99.90
45868;DHT22;31582;45.490;7.860;2023-06-10T06:13:14;20.20;99.90
45868;DHT22;31582;45.490;7.860;2023-06-10T06:15:41;20.40;99.90
45868;DHT22;31582;45.490;7.860;2023-06-10T06:18:08;20.60;99.90
45868;DHT22;31582;45.490;7.860;2023-06-10T06:20:35;20.70;99.90
45868;DHT22;31582;45.490;7.860;2023-06-10T06:23:02;20.80;99.90
45868;DHT22;31582;45.490;7.860;2023-06-10T06:25:29;20.70;99.90
45868;DHT22;31582;45.490;7.860;2023-06-10T06:27:56;20.80;99.90
45868;DHT22;31582;45.490;7.860;2023-06-10T06:30:23;20.90;99.90
45868;DHT22;31582;45.490;7.860;2023-06-10T06:32:50;20.90;99.90
45868;DHT22;31582;45.490;7.860;2023-06-10T06:35:18;20.90;99.90
45868;DHT22;31582;45.490;7.860;2023-06-10T06:37:45;20.80;99.90
45868;DHT22;31582;45.490;7.860;2023-06-10T06:40:12;20.70;99.90
45868;DHT22;31582;45.490;7.860;2023-06-10T06:42:39;20.70;99.90
45868;DHT22;31582;45.490;7.860;2023-06-10T06:45:07;20.70;99.90
45868;DHT22;31582;45.490;7.860;2023-06-10T06:47:37;20.70;99.90
45868;DHT22;31582;45.490;7.860;2023-06-10T06:50:04;20.70;99.90
45868;DHT22;31582;45.490;7.860;2023-06-10T06:52:31;20.80;99.90
45868;DHT22;31582;45.490;7.860;2023-06-10T06:54:58;20.80;99.90
45868;DHT22;31582;45.490;7.860;2023-06-10T06:57:25;20.90;99.90
45868;DHT22;31582;45.490;7.860;2023-06-10T06:59:51;21.00;99.90
45868;DHT22;31582;45.490;7.860;2023-06-10T07:02:18;21.10;99.90
45868;DHT22;31582;45.490;7.860;2023-06-10T07:04:45;21.20;99.90
45868;DHT22;31582;45.490;7.860;2023-06-10T07:07:15;21.20;99.90
45868;DHT22;31582;45.490;7.860;2023-06-10T07:09:42;21.20;99.90
45868;DHT22;31582;45.490;7.860;2023-06-10T07:12:09;21.30;99.90
45868;DHT22;31582;45.490;7.860;2023-06-10T07:14:36;21.30;99.90
45868;DHT22;31582;45.490;7.860;2023-06-10T07:17:03;21.40;99.90
45868;DHT22;31582;45.490;7.860;2023-06-10T07:19:30;21.50;99.90
45868;DHT22;31582;45.490;7.860;2023-06-10T07:21:57;21.60;99.90
45868;DHT22;31582;45.490;7.860;2023-06-10T07:24:24;21.70;99.90
45868;DHT22;31582;45.490;7.860;2023-06-10T07:26:51;21.80;99.90
45868;DHT22;31582;45.490;7.860;2023-06-10T07:29:18;22.40;99.90
45868;DHT22;31582;45.490;7.860;2023-06-10T07:31:45;22.40;99.90
45868;DHT22;31582;45.490;7.860;2023-06-10T07:34:12;22.50;99.90
45868;DHT22;31582;45.490;7.860;2023-06-10T07:36:39;22.60;99.90
45868;DHT22;31582;45.490;7.860;2023-06-10T07:39:06;22.80;99.90
45868;DHT22;31582;45.490;7.860;2023-06-10T07:41:33;22.60;99.90
45868;DHT22;31582;45.490;7.860;2023-06-10T07:44:00;22.80;99.90
45868;DHT22;31582;45.490;7.860;2023-06-10T07:46:27;22.80;99.90
45868;DHT22;31582;45.490;7.860;2023-06-10T07:48:55;23.00;99.90
45868;DHT22;31582;45.490;7.860;2023-06-10T07:51:22;23.20;99.00
45868;DHT22;31582;45.490;7.860;2023-06-10T07:53:49;23.00;97.90
45868;DHT22;31582;45.490;7.860;2023-06-10T07:56:16;22.90;99.10
45868;DHT22;31582;45.490;7.860;2023-06-10T07:58:43;23.00;99.90
45868;DHT22;31582;45.490;7.860;2023-06-10T08:01:10;23.30;98.90
45868;DHT22;31582;45.490;7.860;2023-06-10T08:03:37;23.40;94.80
45868;DHT22;31582;45.490;7.860;2023-06-10T08:06:04;23.40;96.40
45868;DHT22;31582;45.490;7.860;2023-06-10T08:08:32;23.40;98.30
45868;DHT22;31582;45.490;7.860;2023-06-10T08:10:59;23.50;96.60
45868;DHT22;31582;45.490;7.860;2023-06-10T08:13:26;23.50;96.60
45868;DHT22;31582;45.490;7.860;2023-06-10T08:15:53;23.40;95.20
45868;DHT22;31582;45.490;7.860;2023-06-10T08:18:21;23.30;95.70
45868;DHT22;31582;45.490;7.860;2023-06-10T08:20:48;23.20;96.70
45868;DHT22;31582;45.490;7.860;2023-06-10T08:23:15;23.20;98.10
45868;DHT22;31582;45.490;7.860;2023-06-10T08:25:42;23.10;97.80
45868;DHT22;31582;45.490;7.860;2023-06-10T08:28:09;23.00;96.90
45868;DHT22;31582;45.490;7.860;2023-06-10T08:30:36;22.90;98.60
45868;DHT22;31582;45.490;7.860;2023-06-10T08:33:02;23.00;99.70
45868;DHT22;31582;45.490;7.860;2023-06-10T08:35:30;23.00;99.50
45868;DHT22;31582;45.490;7.860;2023-06-10T08:37:57;23.00;99.50
45868;DHT22;31582;45.490;7.860;2023-06-10T08:40:24;22.90;99.90
45868;DHT22;31582;45.490;7.860;2023-06-10T08:43:08;22.80;99.90
45868;DHT22;31582;45.490;7.860;2023-06-10T08:45:37;22.70;99.90
45868;DHT22;31582;45.490;7.860;2023-06-10T08:48:04;22.70;99.90
45868;DHT22;31582;45.490;7.860;2023-06-10T08:50:36;22.70;99.90
45868;DHT22;31582;45.490;7.860;2023-06-10T08:53:05;22.80;99.90
45868;DHT22;31582;45.490;7.860;2023-06-10T08:55:42;22.80;99.90
45868;DHT22;31582;45.490;7.860;2023-06-10T08:58:13;22.70;99.90
45868;DHT22;31582;45.490;7.860;2023-06-10T09:00:40;22.70;99.90
45868;DHT22;31582;45.490;7.860;2023-06-10T09:03:07;22.60;99.90
45868;DHT22;31582;45.490;7.860;2023-06-10T09:05:36;22.60;99.90
45868;DHT22;31582;45.490;7.860;2023-06-10T09:08:05;22.60;99.90
45868;DHT22;31582;45.490;7.860;2023-06-10T09:10:32;22.70;99.90
45868;DHT22;31582;45.490;7.860;2023-06-10T09:12:59;22.70;99.90
45868;DHT22;31582;45.490;7.860;2023-06-10T09:15:27;22.70;99.90
45868;DHT22;31582;45.490;7.860;2023-06-10T09:17:54;22.80;99.90
45868;DHT22;31582;45.490;7.860;2023-06-10T09:20:21;23.00;99.90
45868;DHT22;31582;45.490;7.860;2023-06-10T09:22:48;23.00;99.90
45868;DHT22;31582;45.490;7.860;2023-06-10T09:25:15;23.10;99.90
45868;DHT22;31582;45.490;7.860;2023-06-10T09:27:48;23.20;99.90
45868;DHT22;31582;45.490;7.860;2023-06-10T09:30:34;23.30;99.90
45868;DHT22;31582;45.490;7.860;2023-06-10T09:33:03;23.60;99.90
45868;DHT22;31582;45.490;7.860;2023-06-10T09:35:35;23.60;99.90
45868;DHT22;31582;45.490;7.860;2023-06-10T09:38:03;23.60;99.90
45868;DHT22;31582;45.490;7.860;2023-06-10T09:40:29;23.90;98.40
45868;DHT22;31582;45.490;7.860;2023-06-10T09:43:00;24.00;97.50
45868;DHT22;31582;45.490;7.860;2023-06-10T09:45:30;24.40;93.80
45868;DHT22;31582;45.490;7.860;2023-06-10T09:48:00;24.20;95.80
45868;DHT22;31582;45.490;7.860;2023-06-10T09:50:28;24.20;94.60
45868;DHT22;31582;45.490;7.860;2023-06-10T09:52:59;24.10;95.30
45868;DHT22;31582;45.490;7.860;2023-06-10T09:55:27;24.20;95.30
45868;DHT22;31582;45.490;7.860;2023-06-10T09:57:54;24.40;92.80
45868;DHT22;31582;45.490;7.860;2023-06-10T10:00:22;24.40;91.00
45868;DHT22;31582;45.490;7.860;2023-06-10T10:02:52;24.80;90.00
45868;DHT22;31582;45.490;7.860;2023-06-10T10:05:21;25.10;86.80
45868;DHT22;31582;45.490;7.860;2023-06-10T10:07:49;25.40;88.60
45868;DHT22;31582;45.490;7.860;2023-06-10T10:10:18;25.40;79.70
45868;DHT22;31582;45.490;7.860;2023-06-10T10:12:53;25.40;86.10
45868;DHT22;31582;45.490;7.860;2023-06-10T10:15:24;25.30;84.40
45868;DHT22;31582;45.490;7.860;2023-06-10T10:18:00;25.80;86.10
45868;DHT22;31582;45.490;7.860;2023-06-10T10:20:31;26.10;75.00
45868;DHT22;31582;45.490;7.860;2023-06-10T10:23:02;25.90;75.40
45868;DHT22;31582;45.490;7.860;2023-06-10T10:25:37;25.60;77.20
45868;DHT22;31582;45.490;7.860;2023-06-10T10:28:12;25.40;81.30
45868;DHT22;31582;45.490;7.860;2023-06-10T10:30:42;25.10;84.10
45868;DHT22;31582;45.490;7.860;2023-06-10T10:33:31;25.20;82.80
45868;DHT22;31582;45.490;7.860;2023-06-10T10:35:59;25.40;79.60
45868;DHT22;31582;45.490;7.860;2023-06-10T10:38:28;25.50;79.70
45868;DHT22;31582;45.490;7.860;2023-06-10T10:40:55;25.20;82.70
45868;DHT22;31582;45.490;7.860;2023-06-10T10:43:27;25.30;82.10
45868;DHT22;31582;45.490;7.860;2023-06-10T10:45:59;25.30;80.80
45868;DHT22;31582;45.490;7.860;2023-06-10T10:48:32;25.30;79.20
45868;DHT22;31582;45.490;7.860;2023-06-10T10:51:00;25.10;82.20
45868;DHT22;31582;45.490;7.860;2023-06-10T10:53:27;25.10;81.70
45868;DHT22;31582;45.490;7.860;2023-06-10T10:58:31;25.20;79.90
45868;DHT22;31582;45.490;7.860;2023-06-10T11:01:13;25.20;80.10
45868;DHT22;31582;45.490;7.860;2023-06-10T11:03:45;25.10;81.60
45868;DHT22;31582;45.490;7.860;2023-06-10T11:06:18;25.10;81.60
45868;DHT22;31582;45.490;7.860;2023-06-10T11:08:46;25.10;82.80
45868;DHT22;31582;45.490;7.860;2023-06-10T11:11:27;25.20;82.90
45868;DHT22;31582;45.490;7.860;2023-06-10T11:13:59;25.10;86.10
45868;DHT22;31582;45.490;7.860;2023-06-10T11:16:28;25.20;83.50
45868;DHT22;31582;45.490;7.860;2023-06-10T11:18:56;25.20;79.30
45868;DHT22;31582;45.490;7.860;2023-06-10T11:21:26;25.30;80.60
45868;DHT22;31582;45.490;7.860;2023-06-10T11:23:58;25.40;78.40
45868;DHT22;31582;45.490;7.860;2023-06-10T11:29:06;25.20;76.30
45868;DHT22;31582;45.490;7.860;2023-06-10T11:31:43;25.20;79.40
45868;DHT22;31582;45.490;7.860;2023-06-10T11:34:11;25.10;78.70
45868;DHT22;31582;45.490;7.860;2023-06-10T11:36:40;24.90;82.10
45868;DHT22;31582;45.490;7.860;2023-06-10T11:39:09;25.00;79.70
45868;DHT22;31582;45.490;7.860;2023-06-10T11:41:38;25.10;78.20
45868;DHT22;31582;45.490;7.860;2023-06-10T11:44:14;25.20;80.10
45868;DHT22;31582;45.490;7.860;2023-06-10T11:46:47;25.30;78.70
45868;DHT22;31582;45.490;7.860;2023-06-10T11:49:15;25.30;76.20
45868;DHT22;31582;45.490;7.860;2023-06-10T11:51:43;25.20;77.20
45868;DHT22;31582;45.490;7.860;2023-06-10T11:54:17;25.40;76.20
45868;DHT22;31582;45.490;7.860;2023-06-10T11:56:46;25.40;74.20
45868;DHT22;31582;45.490;7.860;2023-06-10T11:59:14;25.70;73.80
45868;DHT22;31582;45.490;7.860;2023-06-10T12:01:45;25.70;76.00
45868;DHT22;31582;45.490;7.860;2023-06-10T12:04:15;25.80;73.30
45868;DHT22;31582;45.490;7.860;2023-06-10T12:06:47;25.70;73.10
45868;DHT22;31582;45.490;7.860;2023-06-10T12:11:56;25.50;74.70
45868;DHT22;31582;45.490;7.860;2023-06-10T12:14:53;25.50;76.20
45868;DHT22;31582;45.490;7.860;2023-06-10T12:17:23;25.50;78.20
45868;DHT22;31582;45.490;7.860;2023-06-10T12:19:53;25.50;74.30
45868;DHT22;31582;45.490;7.860;2023-06-10T12:22:20;25.30;75.00
45868;DHT22;31582;45.490;7.860;2023-06-10T12:25:00;25.20;77.20
45868;DHT22;31582;45.490;7.860;2023-06-10T12:27:28;25.10;77.60
45868;DHT22;31582;45.490;7.860;2023-06-10T12:29:57;25.00;78.30
45868;DHT22;31582;45.490;7.860;2023-06-10T12:32:55;25.10;77.70
45868;DHT22;31582;45.490;7.860;2023-06-10T12:35:24;25.20;75.20
45868;DHT22;31582;45.490;7.860;2023-06-10T12:40:31;25.20;76.10
45868;DHT22;31582;45.490;7.860;2023-06-10T12:43:00;25.30;75.70
45868;DHT22;31582;45.490;7.860;2023-06-10T12:45:35;25.30;75.30
45868;DHT22;31582;45.490;7.860;2023-06-10T12:48:17;25.60;79.00
45868;DHT22;31582;45.490;7.860;2023-06-10T12:50:50;25.70;77.80
45868;DHT22;31582;45.490;7.860;2023-06-10T12:53:18;25.90;78.50
45868;DHT22;31582;45.490;7.860;2023-06-10T12:55:46;25.90;79.90
45868;DHT22;31582;45.490;7.860;2023-06-10T12:58:14;25.80;72.90
45868;DHT22;31582;45.490;7.860;2023-06-10T13:00:41;25.70;74.30
45868;DHT22;31582;45.490;7.860;2023-06-10T13:03:09;25.60;73.50
45868;DHT22;31582;45.490;7.860;2023-06-10T13:05:37;25.50;73.70
45868;DHT22;31582;45.490;7.860;2023-06-10T13:08:06;25.40;73.20
45868;DHT22;31582;45.490;7.860;2023-06-10T13:10:34;25.50;77.50
45868;DHT22;31582;45.490;7.860;2023-06-10T13:13:02;25.50;73.50
45868;DHT22;31582;45.490;7.860;2023-06-10T13:15:32;25.60;75.00
45868;DHT22;31582;45.490;7.860;2023-06-10T13:18:08;26.20;77.60
45868;DHT22;31582;45.490;7.860;2023-06-10T13:20:35;26.30;75.00
45868;DHT22;31582;45.490;7.860;2023-06-10T13:23:03;26.40;70.60
45868;DHT22;31582;45.490;7.860;2023-06-10T13:25:29;26.40;72.70
45868;DHT22;31582;45.490;7.860;2023-06-10T13:27:56;26.70;71.70
45868;DHT22;31582;45.490;7.860;2023-06-10T13:30:24;26.50;73.10
45868;DHT22;31582;45.490;7.860;2023-06-10T13:32:51;26.50;71.40
45868;DHT22;31582;45.490;7.860;2023-06-10T13:35:18;26.20;78.90
45868;DHT22;31582;45.490;7.860;2023-06-10T13:37:45;26.20;78.50
45868;DHT22;31582;45.490;7.860;2023-06-10T13:40:12;26.00;79.40
45868;DHT22;31582;45.490;7.860;2023-06-10T13:42:39;25.60;77.60
45868;DHT22;31582;45.490;7.860;2023-06-10T13:45:06;25.40;80.80
45868;DHT22;31582;45.490;7.860;2023-06-10T13:47:34;25.30;81.50
45868;DHT22;31582;45.490;7.860;2023-06-10T13:50:01;25.20;86.10
45868;DHT22;31582;45.490;7.860;2023-06-10T13:52:28;25.30;87.10
45868;DHT22;31582;45.490;7.860;2023-06-10T13:54:55;25.40;83.40
45868;DHT22;31582;45.490;7.860;2023-06-10T13:57:22;25.50;83.00
45868;DHT22;31582;45.490;7.860;2023-06-10T13:59:48;25.60;81.90
45868;DHT22;31582;45.490;7.860;2023-06-10T14:02:15;25.60;77.40
45868;DHT22;31582;45.490;7.860;2023-06-10T14:04:43;25.70;79.30
45868;DHT22;31582;45.490;7.860;2023-06-10T14:07:10;26.00;80.90
45868;DHT22;31582;45.490;7.860;2023-06-10T14:09:37;26.10;75.20
45868;DHT22;31582;45.490;7.860;2023-06-10T14:12:04;26.10;75.70
45868;DHT22;31582;45.490;7.860;2023-06-10T14:14:31;26.00;75.00
45868;DHT22;31582;45.490;7.860;2023-06-10T14:17:01;25.90;75.20
45868;DHT22;31582;45.490;7.860;2023-06-10T14:19:28;25.80;77.60
45868;DHT22;31582;45.490;7.860;2023-06-10T14:21:55;25.80;79.80
45868;DHT22;31582;45.490;7.860;2023-06-10T14:24:22;25.80;78.50
45868;DHT22;31582;45.490;7.860;2023-06-10T14:26:50;25.80;78.30
45868;DHT22;31582;45.490;7.860;2023-06-10T14:29:17;25.80;76.00
45868;DHT22;31582;45.490;7.860;2023-06-10T14:31:45;25.80;77.00
45868;DHT22;31582;45.490;7.860;2023-06-10T14:34:12;25.90;77.70
45868;DHT22;31582;45.490;7.860;2023-06-10T14:36:39;26.20;74.80
45868;DHT22;31582;45.490;7.860;2023-06-10T14:39:06;26.60;75.00
45868;DHT22;31582;45.490;7.860;2023-06-10T14:41:32;26.90;71.70
45868;DHT22;31582;45.490;7.860;2023-06-10T14:43:59;26.80;72.70
45868;DHT22;31582;45.490;7.860;2023-06-10T14:46:26;27.00;72.20
45868;DHT22;31582;45.490;7.860;2023-06-10T14:48:53;26.90;71.30
45868;DHT22;31582;45.490;7.860;2023-06-10T14:51:20;26.80;69.80
45868;DHT22;31582;45.490;7.860;2023-06-10T14:53:47;26.70;69.80
45868;DHT22;31582;45.490;7.860;2023-06-10T14:56:14;26.60;70.60
45868;DHT22;31582;45.490;7.860;2023-06-10T14:58:41;26.60;69.70
45868;DHT22;31582;45.490;7.860;2023-06-10T15:01:08;26.70;70.50
45868;DHT22;31582;45.490;7.860;2023-06-10T15:03:35;27.00;70.30
45868;DHT22;31582;45.490;7.860;2023-06-10T15:06:02;27.30;68.30
45868;DHT22;31582;45.490;7.860;2023-06-10T15:08:29;27.90;60.70
45868;DHT22;31582;45.490;7.860;2023-06-10T15:10:56;28.20;57.50
45868;DHT22;31582;45.490;7.860;2023-06-10T15:13:24;28.30;55.70
45868;DHT22;31582;45.490;7.860;2023-06-10T15:15:51;28.30;58.60
45868;DHT22;31582;45.490;7.860;2023-06-10T15:18:18;28.80;53.90
45868;DHT22;31582;45.490;7.860;2023-06-10T15:20:45;28.90;51.70
45868;DHT22;31582;45.490;7.860;2023-06-10T15:23:12;28.90;52.20
45868;DHT22;31582;45.490;7.860;2023-06-10T15:25:39;29.10;50.20
45868;DHT22;31582;45.490;7.860;2023-06-10T15:28:08;29.10;51.60
